createdAt,value
2019-02-17T00:01:35.207Z,11.77
2019-02-17T00:04:05.806Z,11.30
2019-02-17T00:06:36.344Z,11.10
2019-02-17T00:09:13.378Z,11.23
2019-02-17T00:11:43.911Z,11.63
2019-02-17T00:14:14.446Z,12.40
2019-02-17T00:16:45.122Z,12.17
2019-02-17T00:19:15.701Z,11.53
2019-02-17T00:21:46.230Z,12.47
2019-02-17T00:24:16.819Z,13.10
2019-02-17T00:26:47.365Z,12.93
2019-02-17T00:29:17.901Z,12.37
2019-02-17T00:31:48.462Z,12.73
2019-02-17T00:34:19.113Z,13.00
2019-02-17T00:36:49.728Z,13.53
2019-02-17T00:39:20.421Z,12.58
2019-02-17T00:41:51.046Z,10.97
2019-02-17T00:44:21.624Z,12.33
2019-02-17T00:46:52.165Z,11.97
2019-02-17T00:49:22.760Z,13.43
2019-02-17T00:51:53.432Z,12.70
2019-02-17T00:54:24.020Z,11.77
2019-02-17T00:56:54.709Z,13.03
2019-02-17T00:59:25.368Z,13.10
2019-02-17T01:01:55.908Z,12.20
2019-02-17T01:04:26.444Z,11.77
2019-02-17T01:06:57.001Z,11.83
2019-02-17T01:09:27.623Z,10.87
2019-02-17T01:11:58.239Z,12.20
2019-02-17T01:14:28.758Z,11.37
2019-02-17T01:16:59.331Z,12.20
2019-02-17T01:19:29.902Z,11.77
2019-02-17T01:22:00.512Z,12.80
2019-02-17T01:24:31.032Z,11.57
2019-02-17T01:27:01.865Z,12.13
2019-02-17T01:29:32.440Z,11.87
2019-02-17T01:32:03.134Z,12.90
2019-02-17T01:34:33.646Z,12.37
2019-02-17T01:37:04.300Z,11.60
2019-02-17T01:39:34.866Z,12.43
2019-02-17T01:42:05.381Z,12.30
2019-02-17T01:44:35.994Z,11.37
2019-02-17T01:47:06.539Z,13.00
2019-02-17T01:49:37.098Z,11.33
2019-02-17T01:52:07.630Z,11.70
2019-02-17T01:54:38.205Z,11.93
2019-02-17T01:57:08.724Z,11.10
2019-02-17T01:59:39.347Z,13.23
2019-02-17T02:02:09.864Z,12.83
2019-02-17T02:04:40.427Z,13.10
2019-02-17T02:07:10.928Z,12.97
2019-02-17T02:09:41.515Z,13.13
2019-02-17T02:12:12.047Z,12.87
2019-02-17T02:14:42.592Z,12.47
2019-02-17T02:17:13.172Z,12.33
2019-02-17T02:19:43.688Z,12.27
2019-02-17T02:22:14.275Z,11.43
2019-02-17T02:24:45.114Z,10.93
2019-02-17T02:27:15.653Z,12.77
2019-02-17T02:29:46.172Z,11.57
2019-02-17T02:32:16.760Z,11.97
2019-02-17T02:34:47.343Z,10.93
2019-02-17T02:37:17.902Z,12.00
2019-02-17T02:39:48.469Z,11.85
2019-02-17T02:42:19.034Z,11.97
2019-02-17T02:44:49.620Z,13.93
2019-02-17T02:47:20.166Z,13.37
2019-02-17T02:49:50.688Z,11.83
2019-02-17T02:52:21.283Z,11.93
2019-02-17T02:54:51.814Z,11.47
2019-02-17T02:57:22.388Z,11.67
2019-02-17T02:59:52.958Z,11.50
2019-02-17T03:02:23.507Z,10.30
2019-02-17T03:04:54.004Z,12.30
2019-02-17T03:07:24.654Z,11.43
2019-02-17T03:09:55.217Z,11.57
2019-02-17T03:12:25.807Z,11.33
2019-02-17T03:14:56.358Z,12.13
2019-02-17T03:17:27.354Z,12.73
2019-02-17T03:19:57.940Z,11.77
2019-02-17T03:22:28.460Z,12.63
2019-02-17T03:24:59.020Z,12.10
2019-02-17T03:27:29.577Z,12.37
2019-02-17T03:30:04.897Z,12.40
2019-02-17T03:32:32.399Z,12.93
2019-02-17T03:35:02.954Z,12.97
2019-02-17T03:37:33.521Z,12.37
2019-02-17T03:40:04.800Z,12.23
2019-02-17T03:42:35.352Z,11.90
2019-02-17T03:45:06.037Z,12.20
2019-02-17T03:47:36.605Z,12.47
2019-02-17T03:50:07.581Z,12.80
2019-02-17T03:52:38.142Z,11.27
2019-02-17T03:55:08.715Z,11.17
2019-02-17T03:57:39.251Z,12.40
2019-02-17T04:00:17.102Z,11.43
2019-02-17T04:02:42.108Z,11.30
2019-02-17T04:05:12.636Z,11.18
2019-02-17T04:07:43.198Z,10.50
2019-02-17T04:10:13.353Z,10.63
2019-02-17T04:12:43.872Z,11.27
2019-02-17T04:15:14.691Z,10.43
2019-02-17T04:17:45.206Z,11.10
2019-02-17T04:20:15.783Z,10.60
2019-02-17T04:22:46.268Z,10.07
2019-02-17T04:25:17.129Z,9.97
2019-02-17T04:27:47.697Z,9.77
2019-02-17T04:30:28.927Z,10.10
2019-02-17T04:32:50.543Z,10.63
2019-02-17T04:35:21.124Z,9.93
2019-02-17T04:37:51.643Z,10.43
2019-02-17T04:40:22.209Z,10.47
2019-02-17T04:42:52.759Z,9.93
2019-02-17T04:45:23.365Z,10.00
2019-02-17T04:47:53.926Z,10.60
2019-02-17T04:50:24.477Z,10.63
2019-02-17T04:52:55.047Z,10.13
2019-02-17T04:55:25.610Z,10.03
2019-02-17T04:57:56.135Z,9.17
2019-02-17T05:00:26.698Z,9.60
2019-02-17T05:02:57.239Z,10.53
2019-02-17T05:05:27.832Z,9.58
2019-02-17T05:07:58.368Z,10.20
2019-02-17T05:10:28.956Z,9.23
2019-02-17T05:12:59.467Z,9.33
2019-02-17T05:15:32.062Z,9.57
2019-02-17T05:18:02.324Z,9.60
2019-02-17T05:20:32.844Z,10.90
2019-02-17T05:23:03.362Z,9.13
2019-02-17T05:25:36.943Z,9.10
2019-02-17T05:28:07.541Z,9.47
2019-02-17T05:30:38.099Z,9.18
2019-02-17T05:33:08.648Z,9.47
2019-02-17T05:35:39.196Z,9.53
2019-02-17T05:38:09.801Z,9.30
2019-02-17T05:40:40.370Z,11.23
2019-02-17T05:43:10.924Z,9.93
2019-02-17T05:45:41.455Z,10.13
2019-02-17T05:48:11.975Z,10.40
2019-02-17T05:50:42.627Z,9.27
2019-02-17T05:53:13.173Z,9.83
2019-02-17T05:55:43.743Z,8.93
2019-02-17T05:58:14.319Z,9.53
2019-02-17T06:00:45.021Z,9.30
2019-02-17T06:03:15.564Z,10.63
2019-02-17T06:05:46.158Z,10.30
2019-02-17T06:08:16.699Z,9.93
2019-02-17T06:10:47.224Z,9.87
2019-02-17T06:13:17.769Z,9.43
2019-02-17T06:15:48.304Z,9.53
2019-02-17T06:18:18.800Z,10.20
2019-02-17T06:20:49.361Z,9.17
2019-02-17T06:23:19.907Z,11.37
2019-02-17T06:25:50.471Z,9.27
2019-02-17T06:28:21.100Z,10.03
2019-02-17T06:30:51.849Z,9.50
2019-02-17T06:33:22.368Z,9.90
2019-02-17T06:35:53.033Z,10.00
2019-02-17T06:38:23.799Z,10.00
2019-02-17T06:40:54.457Z,9.93
2019-02-17T06:43:25.516Z,10.13
2019-02-17T06:45:56.100Z,9.27
2019-02-17T06:48:26.686Z,10.27
2019-02-17T06:50:57.378Z,9.10
2019-02-17T06:53:27.881Z,9.23
2019-02-17T06:56:05.933Z,8.80
2019-02-17T06:58:36.553Z,9.40
2019-02-17T07:01:07.057Z,9.33
2019-02-17T07:03:37.672Z,9.78
2019-02-17T07:06:15.590Z,9.20
2019-02-17T07:08:46.158Z,9.00
2019-02-17T07:11:16.703Z,9.73
2019-02-17T07:13:47.250Z,9.60
2019-02-17T07:16:19.465Z,9.40
2019-02-17T07:18:49.990Z,8.67
2019-02-17T07:21:20.615Z,9.50
2019-02-17T07:23:51.198Z,8.80
2019-02-17T07:26:21.873Z,9.47
2019-02-17T07:28:52.381Z,8.80
2019-02-17T07:31:22.997Z,8.90
2019-02-17T07:33:53.684Z,8.33
2019-02-17T07:36:24.206Z,9.40
2019-02-17T07:38:54.925Z,8.70
2019-02-17T07:41:25.570Z,9.50
2019-02-17T07:43:56.145Z,10.63
2019-02-17T07:46:26.703Z,11.27
2019-02-17T07:48:57.224Z,10.65
2019-02-17T07:51:27.740Z,10.33
2019-02-17T07:53:58.342Z,10.00
2019-02-17T07:56:28.897Z,10.03
2019-02-17T07:58:59.425Z,10.47
2019-02-17T08:01:29.996Z,9.47
2019-02-17T08:04:00.511Z,9.23
2019-02-17T08:06:31.142Z,9.93
2019-02-17T08:09:01.701Z,10.70
2019-02-17T08:11:32.258Z,10.00
2019-02-17T08:14:02.854Z,10.40
2019-02-17T08:16:33.429Z,9.50
2019-02-17T08:19:03.991Z,10.27
2019-02-17T08:21:34.555Z,10.67
2019-02-17T08:24:05.115Z,11.30
2019-02-17T08:26:35.630Z,10.13
2019-02-17T08:29:06.239Z,9.60
2019-02-17T08:31:36.767Z,11.23
2019-02-17T08:34:07.338Z,10.77
2019-02-17T08:36:37.907Z,10.13
2019-02-17T08:39:08.700Z,11.43
2019-02-17T08:41:39.227Z,10.50
2019-02-17T08:44:09.834Z,11.60
2019-02-17T08:46:40.449Z,10.17
2019-02-17T08:49:11.014Z,11.43
2019-02-17T08:51:41.531Z,10.33
2019-02-17T08:54:12.116Z,12.73
2019-02-17T08:56:42.668Z,12.00
2019-02-17T08:59:13.237Z,10.90
2019-02-17T09:01:43.765Z,11.70
2019-02-17T09:04:14.334Z,11.70
2019-02-17T09:06:44.846Z,12.63
2019-02-17T09:09:15.434Z,11.23
2019-02-17T09:11:46.031Z,11.33
2019-02-17T09:14:16.634Z,11.27
2019-02-17T09:16:47.156Z,11.83
2019-02-17T09:19:17.687Z,11.90
2019-02-17T09:21:48.218Z,12.17
2019-02-17T09:24:18.785Z,11.50
2019-02-17T09:26:49.560Z,12.33
2019-02-17T09:29:20.093Z,11.75
2019-02-17T09:31:51.828Z,11.27
2019-02-17T09:34:22.496Z,11.77
2019-02-17T09:36:53.037Z,12.03
2019-02-17T09:39:23.705Z,11.63
2019-02-17T09:41:54.234Z,12.17
2019-02-17T09:44:26.009Z,11.60
2019-02-17T09:46:56.652Z,12.17
2019-02-17T09:49:27.240Z,12.00
2019-02-17T09:51:57.861Z,10.77
2019-02-17T09:54:28.524Z,11.73
2019-02-17T10:05:21.325Z,11.07
2019-02-17T10:07:51.834Z,10.70
2019-02-17T10:10:22.490Z,11.53
2019-02-17T10:12:53.024Z,12.43
2019-02-17T10:15:23.710Z,11.27
2019-02-17T10:17:54.355Z,12.03
2019-02-17T10:20:24.941Z,12.37
2019-02-17T10:22:55.769Z,11.93
2019-02-17T10:25:35.099Z,10.87
2019-02-17T10:28:05.717Z,12.47
2019-02-17T10:30:36.473Z,10.88
2019-02-17T10:33:07.031Z,10.90
2019-02-17T10:35:37.622Z,11.43
2019-02-17T10:38:08.140Z,11.90
2019-02-17T10:40:38.860Z,11.87
2019-02-17T10:43:09.385Z,11.70
2019-02-17T10:45:39.973Z,10.80
2019-02-17T10:48:10.533Z,11.77
2019-02-17T10:50:41.094Z,10.83
2019-02-17T10:53:11.689Z,11.80
2019-02-17T10:55:42.245Z,11.57
2019-02-17T10:58:12.799Z,13.33
2019-02-17T11:00:43.473Z,12.67
2019-02-17T11:03:14.067Z,12.30
2019-02-17T11:05:44.694Z,11.77
2019-02-17T11:08:15.307Z,11.67
2019-02-17T11:10:45.795Z,11.77
2019-02-17T11:13:16.667Z,11.20
2019-02-17T11:15:47.217Z,12.23
2019-02-17T11:18:17.914Z,12.37
2019-02-17T11:20:48.457Z,11.93
2019-02-17T11:23:19.127Z,12.13
2019-02-17T11:25:51.942Z,12.00
2019-02-17T11:28:24.892Z,11.67
2019-02-17T11:30:55.660Z,11.80
2019-02-17T11:33:26.186Z,12.50
2019-02-17T11:35:56.758Z,11.43
2019-02-17T11:38:27.293Z,11.13
2019-02-17T11:40:57.891Z,11.63
2019-02-17T11:43:28.448Z,11.50
2019-02-17T11:45:59.077Z,11.60
2019-02-17T11:48:29.653Z,12.13
2019-02-17T11:51:00.232Z,12.23
2019-02-17T11:53:30.806Z,12.20
2019-02-17T11:56:01.556Z,11.33
2019-02-17T11:58:32.154Z,10.82
2019-02-17T12:01:06.839Z,11.70
2019-02-17T12:03:37.449Z,10.50
2019-02-17T12:06:10.956Z,11.03
2019-02-17T12:08:47.420Z,9.80
2019-02-17T12:11:17.964Z,10.13
2019-02-17T12:13:53.991Z,10.17
2019-02-17T12:16:36.483Z,10.80
2019-02-17T12:18:59.047Z,11.73
2019-02-17T12:21:56.812Z,10.30
2019-02-17T12:24:42.479Z,10.40
2019-02-17T12:27:42.378Z,10.63
2019-02-17T12:30:19.864Z,10.37
2019-02-17T12:32:50.688Z,10.87
2019-02-17T12:42:22.256Z,9.97
2019-02-17T13:05:52.890Z,9.47
2019-02-17T13:08:23.516Z,9.17
2019-02-17T13:10:54.141Z,9.60
2019-02-17T13:13:24.700Z,9.63
2019-02-17T13:15:55.179Z,9.40
2019-02-17T13:18:25.710Z,9.00
2019-02-17T13:20:56.161Z,9.73
2019-02-17T13:23:26.658Z,9.27
2019-02-17T13:25:57.181Z,8.60
2019-02-17T13:29:20.460Z,9.10
2019-02-17T13:31:51.069Z,8.97
2019-02-17T13:34:21.618Z,8.90
2019-02-17T13:36:55.367Z,9.07
2019-02-17T13:39:25.897Z,8.23
2019-02-17T13:41:56.745Z,7.80
2019-02-17T13:44:27.307Z,9.90
2019-02-17T13:47:05.085Z,9.03
2019-02-17T13:49:37.967Z,9.37
2019-02-17T13:52:10.742Z,8.37
2019-02-17T13:57:24.042Z,7.97
2019-02-17T13:59:54.771Z,7.03
2019-02-17T14:03:15.909Z,7.93
2019-02-17T14:05:46.429Z,8.70
2019-02-17T14:08:25.661Z,8.70
2019-02-17T14:10:55.405Z,7.83
2019-02-17T14:13:26.186Z,7.77
2019-02-17T14:15:56.722Z,8.27
2019-02-17T14:18:34.753Z,8.37
2019-02-17T14:21:05.384Z,7.53
2019-02-17T14:23:37.512Z,8.17
2019-02-17T14:26:07.994Z,8.47
2019-02-17T14:28:38.591Z,8.27
2019-02-17T14:31:09.145Z,8.07
2019-02-17T14:33:39.665Z,7.60
2019-02-17T14:36:10.159Z,8.20
2019-02-17T14:38:42.667Z,8.10
2019-02-17T14:41:13.234Z,8.00
2019-02-17T14:43:43.766Z,6.53
2019-02-17T14:46:14.278Z,6.30
2019-02-17T14:48:44.802Z,6.87
2019-02-17T14:51:15.561Z,6.93
2019-02-17T14:53:45.995Z,6.90
2019-02-17T14:56:16.895Z,6.93
2019-02-17T14:58:47.383Z,6.47
2019-02-17T15:01:17.854Z,6.33
2019-02-17T15:03:48.364Z,6.37
2019-02-17T15:06:18.878Z,6.30
2019-02-17T15:08:49.540Z,6.50
2019-02-17T15:11:20.025Z,6.43
2019-02-17T15:13:50.496Z,6.43
2019-02-17T15:16:21.069Z,6.93
2019-02-17T15:18:51.620Z,6.40
2019-02-17T15:21:22.204Z,6.20
2019-02-17T15:23:52.903Z,7.13
2019-02-17T15:26:23.658Z,7.43
2019-02-17T15:28:54.202Z,6.70
2019-02-17T15:31:24.801Z,7.20
2019-02-17T15:33:56.562Z,6.50
2019-02-17T15:36:27.189Z,6.67
2019-02-17T15:38:57.688Z,6.70
2019-02-17T15:41:28.301Z,7.10
2019-02-17T15:43:58.856Z,7.23
2019-02-17T15:46:29.342Z,6.80
2019-02-17T15:48:59.979Z,7.50
2019-02-17T15:51:30.464Z,7.20
2019-02-17T15:54:01.245Z,6.60
2019-02-17T15:56:31.786Z,7.30
2019-02-17T15:59:02.312Z,6.70
2019-02-17T16:01:32.795Z,7.07
2019-02-17T16:04:03.422Z,7.10
2019-02-17T16:06:33.922Z,6.30
2019-02-17T16:09:05.524Z,5.83
2019-02-17T16:11:36.024Z,6.33
2019-02-17T16:14:06.495Z,6.27
2019-02-17T16:16:37.055Z,5.80
2019-02-17T16:19:07.532Z,6.80
2019-02-17T16:21:38.115Z,6.67
2019-02-17T16:24:08.750Z,6.60
2019-02-17T16:26:39.316Z,7.10
2019-02-17T16:29:09.814Z,7.33
2019-02-17T16:31:40.326Z,6.70
2019-02-17T16:34:10.900Z,6.30
2019-02-17T16:36:41.540Z,6.73
2019-02-17T16:39:13.251Z,6.10
2019-02-17T16:41:43.746Z,6.50
2019-02-17T16:44:14.315Z,6.73
2019-02-17T16:46:44.998Z,6.40
2019-02-17T16:49:17.959Z,7.60
2019-02-17T16:51:57.563Z,7.57
2019-02-17T16:54:29.142Z,8.00
2019-02-17T16:57:00.481Z,8.00
2019-02-17T16:59:34.161Z,8.80
2019-02-17T17:02:05.041Z,8.27
2019-02-17T17:04:48.516Z,8.13
2019-02-17T17:07:15.476Z,10.17
2019-02-17T17:09:47.781Z,10.00
2019-02-17T17:12:18.394Z,9.60
2019-02-17T17:14:48.970Z,9.50
2019-02-17T17:17:19.505Z,7.37
2019-02-17T17:19:50.040Z,7.93
2019-02-17T17:22:21.670Z,8.87
2019-02-17T17:24:52.291Z,8.53
2019-02-17T17:27:26.136Z,8.40
2019-02-17T17:29:56.726Z,7.93
2019-02-17T17:32:27.264Z,8.07
2019-02-17T17:34:59.171Z,7.50
2019-02-17T17:37:30.014Z,7.83
2019-02-17T17:40:00.762Z,7.87
2019-02-17T17:42:31.337Z,7.40
2019-02-17T17:45:02.009Z,7.57
2019-02-17T17:47:32.481Z,7.37
2019-02-17T17:50:03.217Z,7.63
2019-02-17T17:52:33.712Z,7.20
2019-02-17T17:55:04.380Z,7.63
2019-02-17T17:57:35.236Z,7.90
2019-02-17T18:00:06.965Z,7.70
2019-02-17T18:02:37.502Z,7.70
2019-02-17T18:05:09.515Z,7.53
2019-02-17T18:07:40.231Z,8.17
2019-02-17T18:10:13.253Z,7.57
2019-02-17T18:12:43.844Z,6.87
2019-02-17T18:15:14.746Z,7.37
2019-02-17T18:17:54.237Z,6.77
2019-02-17T18:20:20.730Z,7.50
2019-02-17T18:22:51.266Z,6.40
2019-02-17T18:25:21.827Z,7.33
2019-02-17T18:27:52.406Z,6.87
2019-02-17T18:30:23.038Z,7.43
2019-02-17T18:32:55.364Z,7.00
2019-02-17T18:35:29.084Z,7.90
2019-02-17T18:37:59.738Z,7.13
2019-02-17T18:40:30.394Z,6.90
2019-02-17T18:43:02.199Z,7.43
2019-02-17T18:45:32.789Z,7.63
2019-02-17T18:48:03.393Z,7.30
2019-02-17T18:50:33.926Z,7.47
2019-02-17T18:53:04.800Z,7.47
2019-02-17T18:55:36.419Z,7.90
2019-02-17T18:58:07.081Z,7.90
2019-02-17T19:00:40.359Z,7.40
2019-02-17T19:03:10.989Z,7.23
2019-02-17T19:05:41.603Z,7.10
2019-02-17T19:08:12.222Z,7.97
2019-02-17T19:10:42.852Z,8.03
2019-02-17T19:13:13.479Z,7.47
2019-02-17T19:15:44.047Z,7.73
2019-02-17T19:18:14.586Z,7.33
2019-02-17T19:20:45.226Z,7.00
2019-02-17T19:23:15.774Z,7.47
2019-02-17T19:25:46.383Z,7.03
2019-02-17T19:28:16.910Z,6.67
2019-02-17T19:30:47.466Z,6.70
2019-02-17T19:33:18.051Z,7.17
2019-02-17T19:35:48.673Z,6.83
2019-02-17T19:38:19.234Z,7.43
2019-02-17T19:40:49.824Z,7.63
2019-02-17T19:43:20.589Z,7.03
2019-02-17T19:45:51.243Z,6.70
2019-02-17T19:48:24.803Z,6.67
2019-02-17T19:50:55.513Z,7.10
2019-02-17T19:53:26.133Z,6.60
2019-02-17T19:55:56.742Z,7.37
2019-02-17T19:58:27.320Z,6.53
2019-02-17T20:00:57.870Z,7.90
2019-02-17T20:03:40.070Z,6.77
2019-02-17T20:06:11.397Z,7.47
2019-02-17T20:08:41.933Z,8.10
2019-02-17T20:11:12.429Z,7.93
2019-02-17T20:13:43.329Z,7.80
2019-02-17T20:16:13.841Z,6.90
2019-02-17T20:18:44.492Z,7.63
2019-02-17T20:21:15.078Z,7.87
2019-02-17T20:23:45.597Z,7.40
2019-02-17T20:26:16.203Z,7.33
2019-02-17T20:28:46.766Z,7.33
2019-02-17T20:31:17.374Z,7.73
2019-02-17T20:33:47.909Z,7.43
2019-02-17T20:36:18.434Z,7.20
2019-02-17T20:38:48.977Z,7.57
2019-02-17T20:41:19.596Z,6.93
2019-02-17T20:43:50.305Z,6.77
2019-02-17T20:46:21.847Z,6.90
2019-02-17T20:48:52.649Z,6.67
2019-02-17T20:51:23.122Z,6.93
2019-02-17T20:53:53.740Z,6.83
2019-02-17T20:56:26.147Z,6.63
2019-02-17T20:58:56.672Z,6.00
2019-02-17T21:01:27.442Z,6.17
2019-02-17T21:03:57.977Z,6.23
2019-02-17T21:06:28.563Z,6.80
2019-02-17T21:08:59.117Z,6.57
2019-02-17T21:11:29.713Z,6.70
2019-02-17T21:14:00.268Z,6.40
2019-02-17T21:16:30.896Z,6.83
2019-02-17T21:19:01.531Z,6.60
2019-02-17T21:21:32.103Z,6.17
2019-02-17T21:24:02.666Z,6.73
2019-02-17T21:26:33.268Z,6.70
2019-02-17T21:29:03.822Z,5.93
2019-02-17T21:31:34.347Z,6.97
2019-02-17T21:34:04.940Z,6.70
2019-02-17T21:36:35.493Z,6.90
2019-02-17T21:39:07.296Z,6.47
2019-02-17T21:41:37.838Z,6.53
2019-02-17T21:44:08.389Z,6.83
2019-02-17T21:46:38.933Z,6.50
2019-02-17T21:49:09.487Z,7.13
2019-02-17T21:51:40.059Z,6.43
2019-02-17T21:54:10.611Z,7.13
2019-02-17T21:56:41.127Z,7.13
2019-02-17T21:59:11.797Z,6.58
2019-02-17T22:01:42.366Z,7.13
2019-02-17T22:04:12.870Z,7.30
2019-02-17T22:06:43.417Z,6.27
2019-02-17T22:09:13.887Z,6.97
2019-02-17T22:11:44.508Z,7.33
2019-02-17T22:14:15.042Z,8.17
2019-02-17T22:16:45.619Z,7.50
2019-02-17T22:19:16.116Z,7.67
2019-02-17T22:21:46.642Z,6.90
2019-02-17T22:24:17.222Z,7.20
2019-02-17T22:26:47.720Z,7.67
2019-02-17T22:29:18.267Z,7.13
2019-02-17T22:31:48.762Z,7.20
2019-02-17T22:34:19.353Z,7.03
2019-02-17T22:36:49.869Z,6.83
2019-02-17T22:39:20.462Z,7.07
2019-02-17T22:41:51.051Z,6.47
2019-02-17T22:44:21.626Z,6.77
2019-02-17T22:46:52.177Z,6.63
2019-02-17T22:49:22.760Z,5.90
2019-02-17T22:51:53.419Z,6.90
2019-02-17T22:54:23.996Z,6.62
2019-02-17T22:56:54.689Z,6.40
2019-02-17T22:59:25.234Z,7.07
2019-02-17T23:01:56.836Z,6.13
2019-02-17T23:04:27.365Z,5.73
2019-02-17T23:06:57.880Z,6.30
2019-02-17T23:09:28.910Z,6.53
2019-02-17T23:11:59.478Z,7.10
2019-02-17T23:14:30.118Z,6.27
2019-02-17T23:17:00.642Z,6.73
2019-02-17T23:19:31.207Z,6.33
2019-02-17T23:22:01.733Z,6.63
2019-02-17T23:24:32.489Z,6.13
2019-02-17T23:27:04.159Z,6.03
2019-02-17T23:29:34.783Z,5.90
2019-02-17T23:32:05.456Z,6.27
2019-02-17T23:34:35.985Z,5.90
2019-02-17T23:37:06.692Z,6.37
2019-02-17T23:39:37.198Z,5.63
2019-02-17T23:42:07.725Z,6.00
2019-02-17T23:44:38.311Z,6.10
2019-02-17T23:47:08.861Z,5.57
2019-02-17T23:49:39.406Z,6.10
2019-02-17T23:52:09.938Z,5.67
2019-02-17T23:54:40.479Z,6.63
2019-02-17T23:57:10.999Z,6.77
2019-02-17T23:59:41.569Z,6.07
